Time;durP1;ratioP1;P1;durP2;ratioP2;P2;SDS_P1;SDS_P2;PMS_P1;PMS_P2;Temp;Humidity;BMP_temperature;BMP_pressure;BME280_temperature;BME280_humidity;BME280_pressure;Samples;Min_cycle;Max_cycle;Signal;HPM_P1;HPM_P2
2023/05/02 00:01:28;;;;;;;;;5.33;5.33;;;;;;;;5036131;28;45387;-82
2023/05/02 00:03:53;;;;;;;;;4.67;4.00;;;;;;;;5035425;28;45481;-81
2023/05/02 00:06:18;;;;;;;;;6.67;3.00;;;;;;;;5035858;28;45369;-82
2023/05/02 00:08:43;;;;;;;;;3.67;3.67;;;;;;;;5017951;28;46203;-82
2023/05/02 00:11:08;;;;;;;;;6.67;2.67;;;;;;;;5035633;28;45350;-81
2023/05/02 00:13:34;;;;;;;;;3.33;2.00;;;;;;;;5017919;28;45292;-81
2023/05/02 00:15:59;;;;;;;;;5.00;3.00;;;;;;;;5035308;28;46331;-81
2023/05/02 00:18:24;;;;;;;;;3.67;2.00;;;;;;;;5035225;28;45507;-81
2023/05/02 00:20:49;;;;;;;;;3.00;3.00;;;;;;;;5035806;28;45273;-81
2023/05/02 00:23:15;;;;;;;;;5.50;3.00;;;;;;;;5035664;28;45420;-81
2023/05/02 00:25:44;;;;;;;;;6.33;2.00;;;;;;;;5035391;28;46427;-82
2023/05/02 00:28:09;;;;;;;;;4.00;2.25;;;;;;;;5035544;28;45781;-81
2023/05/02 00:30:35;;;;;;;;;8.25;4.00;;;;;;;;5035686;28;45464;-81
2023/05/02 00:33:00;;;;;;;;;7.75;4.00;;;;;;;;5035187;28;45555;-81
2023/05/02 00:35:26;;;;;;;;;6.00;3.00;;;;;;;;5035459;28;45975;-82
2023/05/02 00:37:51;;;;;;;;;7.00;3.33;;;;;;;;5035147;28;45455;-81
2023/05/02 00:40:16;;;;;;;;;9.00;4.00;;;;;;;;5017690;28;45471;-81
2023/05/02 00:42:41;;;;;;;;;5.50;3.25;;;;;;;;5035199;28;45416;-82
2023/05/02 00:45:07;;;;;;;;;8.67;4.67;;;;;;;;5017279;28;47006;-81
2023/05/02 00:47:32;;;;;;;;;8.75;3.00;;;;;;;;5034826;28;45410;-81
2023/05/02 00:49:59;;;;;;;;;3.75;3.50;;;;;;;;5035390;28;45509;-81
2023/05/02 00:52:25;;;;;;;;;5.50;5.00;;;;;;;;5035178;28;45388;-81
2023/05/02 00:54:50;;;;;;;;;4.00;3.00;;;;;;;;5035025;28;45425;-81
2023/05/02 00:57:15;;;;;;;;;4.00;4.00;;;;;;;;5017223;28;45377;-81
2023/05/02 00:59:40;;;;;;;;;9.00;4.00;;;;;;;;5035254;28;45215;-81
2023/05/02 01:02:24;;;;;;;;;5.50;3.25;;;;;;;;5034881;28;45199;-81
2023/05/02 01:04:58;;;;;;;;;3.25;3.25;;;;;;;;5034950;28;46518;-81
2023/05/02 01:07:33;;;;;;;;;4.75;3.00;;;;;;;;5035104;28;45390;-81
2023/05/02 01:10:12;;;;;;;;;6.00;4.00;;;;;;;;5036465;28;45270;-82
2023/05/02 01:12:54;;;;;;;;;4.25;3.75;;;;;;;;5038611;28;45420;-81
2023/05/02 01:15:21;;;;;;;;;8.50;4.00;;;;;;;;5037996;28;47182;-81
2023/05/02 01:17:47;;;;;;;;;7.50;3.25;;;;;;;;5037846;28;45448;-81
2023/05/02 01:20:14;;;;;;;;;8.00;4.50;;;;;;;;5038502;28;45428;-81
2023/05/02 01:22:40;;;;;;;;;5.50;4.00;;;;;;;;5038426;28;45378;-81
2023/05/02 01:25:14;;;;;;;;;7.00;3.00;;;;;;;;5038116;28;45955;-80
2023/05/02 01:27:58;;;;;;;;;6.00;4.25;;;;;;;;5038090;28;45824;-80
2023/05/02 01:30:25;;;;;;;;;7.75;4.00;;;;;;;;5037877;28;45510;-81
2023/05/02 01:32:52;;;;;;;;;7.00;4.50;;;;;;;;5038090;28;45336;-80
2023/05/02 01:35:19;;;;;;;;;5.75;5.75;;;;;;;;5020059;28;46266;-81
2023/05/02 01:37:44;;;;;;;;;9.50;6.75;;;;;;;;5020097;28;45356;-80
2023/05/02 01:40:10;;;;;;;;;6.00;3.50;;;;;;;;5038096;28;45417;-80
2023/05/02 01:42:37;;;;;;;;;9.00;6.00;;;;;;;;5038254;28;45909;-81
2023/05/02 01:45:03;;;;;;;;;3.25;3.00;;;;;;;;5037318;28;46405;-81
2023/05/02 01:47:30;;;;;;;;;10.75;6.75;;;;;;;;5019930;28;46303;-80
2023/05/02 01:49:56;;;;;;;;;7.00;4.25;;;;;;;;5037999;28;45576;-81
2023/05/02 01:52:22;;;;;;;;;8.25;4.50;;;;;;;;5019934;28;45488;-81
2023/05/02 01:54:49;;;;;;;;;6.00;3.50;;;;;;;;5037579;28;46432;-81
2023/05/02 01:57:16;;;;;;;;;12.00;6.75;;;;;;;;5037630;28;45250;-80
2023/05/02 01:59:42;;;;;;;;;8.75;7.00;;;;;;;;5037508;28;45396;-81
2023/05/02 02:02:08;;;;;;;;;10.75;7.00;;;;;;;;5037896;28;45455;-80
2023/05/02 02:04:35;;;;;;;;;8.00;3.00;;;;;;;;5037437;28;45535;-81
2023/05/02 02:07:02;;;;;;;;;10.25;5.50;;;;;;;;5037741;28;45829;-80
2023/05/02 02:09:28;;;;;;;;;8.25;4.50;;;;;;;;5037576;28;45397;-80
2023/05/02 02:11:58;;;;;;;;;12.50;3.75;;;;;;;;5037394;28;45405;-81
2023/05/02 02:14:32;;;;;;;;;8.50;7.00;;;;;;;;5036723;28;45553;-80
2023/05/02 02:17:00;;;;;;;;;8.00;3.00;;;;;;;;5037341;28;45325;-80
2023/05/02 02:19:25;;;;;;;;;11.00;6.00;;;;;;;;5037402;28;45333;-80
2023/05/02 02:21:53;;;;;;;;;8.75;7.25;;;;;;;;5036461;28;45495;-80
2023/05/02 02:24:19;;;;;;;;;8.00;6.50;;;;;;;;5037139;28;45429;-81
2023/05/02 02:26:45;;;;;;;;;18.50;6.50;;;;;;;;5037142;28;45255;-81
2023/05/02 02:29:10;;;;;;;;;8.25;7.50;;;;;;;;5037070;28;45500;-81
2023/05/02 02:31:37;;;;;;;;;5.75;1.00;;;;;;;;5037504;28;45389;-81
2023/05/02 02:34:03;;;;;;;;;7.00;5.25;;;;;;;;5037110;28;47941;-80
2023/05/02 02:36:35;;;;;;;;;11.25;6.75;;;;;;;;5037155;28;45939;-81
2023/05/02 02:39:03;;;;;;;;;8.75;5.00;;;;;;;;5037110;28;45215;-80
2023/05/02 02:41:57;;;;;;;;;11.00;6.50;;;;;;;;5037112;28;45412;-81
2023/05/02 02:44:41;;;;;;;;;12.25;7.75;;;;;;;;5014904;28;46519;-80
2023/05/02 02:47:20;;;;;;;;;10.50;9.25;;;;;;;;5036974;28;45922;-80
2023/05/02 02:49:58;;;;;;;;;13.00;7.75;;;;;;;;5019077;28;45452;-81
2023/05/02 02:52:36;;;;;;;;;7.25;5.75;;;;;;;;5036827;28;45452;-82
2023/05/02 02:55:16;;;;;;;;;5.75;5.25;;;;;;;;5019299;28;47289;-82
2023/05/02 02:57:54;;;;;;;;;9.50;7.25;;;;;;;;5018710;28;45912;-84
2023/05/02 03:00:21;;;;;;;;;13.50;9.25;;;;;;;;5036762;28;45401;-82
2023/05/02 03:02:46;;;;;;;;;9.50;6.75;;;;;;;;5019063;28;45374;-81
2023/05/02 03:05:12;;;;;;;;;7.00;6.50;;;;;;;;5036571;28;45672;-82
2023/05/02 03:07:37;;;;;;;;;9.25;6.25;;;;;;;;5018932;28;45372;-81
2023/05/02 03:10:03;;;;;;;;;10.00;5.33;;;;;;;;5037103;28;45239;-82
2023/05/02 03:12:29;;;;;;;;;8.00;7.75;;;;;;;;5036010;28;45314;-82
2023/05/02 03:15:00;;;;;;;;;10.33;6.00;;;;;;;;5036455;28;46002;-83
2023/05/02 03:17:26;;;;;;;;;8.00;6.75;;;;;;;;5036849;28;45781;-82
2023/05/02 03:19:51;;;;;;;;;11.00;7.67;;;;;;;;5036613;28;45416;-82
2023/05/02 03:22:16;;;;;;;;;8.33;7.33;;;;;;;;5036544;28;45420;-82
2023/05/02 03:24:41;;;;;;;;;10.00;6.33;;;;;;;;5036338;28;45498;-82
2023/05/02 03:27:06;;;;;;;;;7.67;6.00;;;;;;;;5018431;28;45509;-83
2023/05/02 03:29:32;;;;;;;;;11.00;8.00;;;;;;;;5018540;28;45217;-83
2023/05/02 03:31:57;;;;;;;;;7.67;6.33;;;;;;;;5018500;28;45916;-83
2023/05/02 03:34:22;;;;;;;;;17.33;7.00;;;;;;;;5036096;28;47034;-85
2023/05/02 03:36:48;;;;;;;;;10.33;7.00;;;;;;;;5018348;28;45819;-81
2023/05/02 03:39:13;;;;;;;;;9.25;6.50;;;;;;;;5036122;28;45511;-82
2023/05/02 03:41:39;;;;;;;;;13.50;7.00;;;;;;;;5035598;28;45521;-83
2023/05/02 03:44:04;;;;;;;;;10.25;6.00;;;;;;;;5036051;28;46012;-81
2023/05/02 03:46:29;;;;;;;;;7.50;6.00;;;;;;;;5035988;28;45427;-82
2023/05/02 03:48:56;;;;;;;;;11.00;7.00;;;;;;;;5018375;28;45318;-82
2023/05/02 03:51:21;;;;;;;;;10.75;7.75;;;;;;;;5036011;28;45322;-82
2023/05/02 03:53:47;;;;;;;;;12.00;8.00;;;;;;;;5018036;28;47258;-81
2023/05/02 03:56:16;;;;;;;;;15.75;7.75;;;;;;;;5017650;28;45282;-82
2023/05/02 03:58:41;;;;;;;;;9.00;6.50;;;;;;;;5035124;28;45172;-83
2023/05/02 04:01:13;;;;;;;;;9.33;6.67;;;;;;;;5018527;28;45459;-85
2023/05/02 04:03:38;;;;;;;;;10.75;7.00;;;;;;;;5036090;28;46421;-84
2023/05/02 04:06:03;;;;;;;;;11.00;6.00;;;;;;;;5018253;28;45551;-82
2023/05/02 04:08:28;;;;;;;;;13.00;6.00;;;;;;;;5017823;28;45473;-82
2023/05/02 04:10:53;;;;;;;;;12.67;8.00;;;;;;;;5035162;28;45564;-82
2023/05/02 04:13:19;;;;;;;;;15.33;7.33;;;;;;;;5035435;28;46961;-83
2023/05/02 04:15:44;;;;;;;;;8.00;8.00;;;;;;;;5035616;28;45416;-82
2023/05/02 04:18:09;;;;;;;;;9.25;7.25;;;;;;;;5035667;28;45262;-82
2023/05/02 04:20:35;;;;;;;;;9.25;5.50;;;;;;;;5018076;28;45400;-82
2023/05/02 04:23:00;;;;;;;;;10.67;10.00;;;;;;;;5017706;28;46663;-83
2023/05/02 04:25:26;;;;;;;;;7.33;7.33;;;;;;;;5035200;28;45333;-83
2023/05/02 04:27:51;;;;;;;;;11.00;9.00;;;;;;;;5017874;28;45338;-84
2023/05/02 04:30:16;;;;;;;;;11.33;6.33;;;;;;;;5017513;28;45577;-82
2023/05/02 04:32:41;;;;;;;;;11.00;5.67;;;;;;;;5035432;28;47358;-81
2023/05/02 04:35:07;;;;;;;;;10.00;7.00;;;;;;;;5017599;28;45701;-82
2023/05/02 04:37:32;;;;;;;;;10.00;7.00;;;;;;;;5017568;28;45306;-86
2023/05/02 04:39:57;;;;;;;;;16.33;11.00;;;;;;;;5017880;28;45482;-82
2023/05/02 04:42:23;;;;;;;;;6.00;6.00;;;;;;;;5035758;28;46675;-83
2023/05/02 04:44:48;;;;;;;;;7.50;7.50;;;;;;;;5036716;28;45325;-83
2023/05/02 04:47:14;;;;;;;;;12.75;6.50;;;;;;;;5039183;28;45385;-83
2023/05/02 04:49:39;;;;;;;;;10.67;8.00;;;;;;;;5020967;28;45499;-83
2023/05/02 04:52:05;;;;;;;;;13.25;10.50;;;;;;;;5038834;28;47181;-82
2023/05/02 04:54:31;;;;;;;;;10.00;6.00;;;;;;;;5038215;28;45313;-82
2023/05/02 04:56:56;;;;;;;;;9.00;6.75;;;;;;;;5039142;28;45564;-83
2023/05/02 04:59:21;;;;;;;;;11.33;10.00;;;;;;;;5021371;28;45455;-82
2023/05/02 05:01:47;;;;;;;;;11.67;6.33;;;;;;;;5038516;28;46623;-82
2023/05/02 05:04:12;;;;;;;;;12.00;5.50;;;;;;;;5038676;28;45297;-82
2023/05/02 05:06:37;;;;;;;;;11.00;10.33;;;;;;;;5021072;28;45300;-82
2023/05/02 05:09:03;;;;;;;;;10.25;6.50;;;;;;;;5038354;28;45321;-82
2023/05/02 05:11:28;;;;;;;;;7.00;5.00;;;;;;;;5020456;28;48086;-83
2023/05/02 05:13:53;;;;;;;;;9.00;6.00;;;;;;;;5038471;28;45349;-83
2023/05/02 05:16:18;;;;;;;;;20.00;9.67;;;;;;;;5038637;28;45253;-82
2023/05/02 05:18:44;;;;;;;;;5.33;3.00;;;;;;;;5020770;28;45337;-83
2023/05/02 05:21:09;;;;;;;;;12.33;11.00;;;;;;;;5038303;28;47024;-81
2023/05/02 05:23:37;;;;;;;;;7.75;5.50;;;;;;;;5038051;28;45315;-87
2023/05/02 05:26:09;;;;;;;;;14.50;8.00;;;;;;;;5038620;28;45370;-82
2023/05/02 05:28:35;;;;;;;;;11.00;7.00;;;;;;;;5020371;28;45370;-80
2023/05/02 05:31:07;;;;;;;;;11.75;10.00;;;;;;;;5038383;28;46101;-81
2023/05/02 05:33:32;;;;;;;;;16.75;9.00;;;;;;;;5020471;28;45403;-82
2023/05/02 05:36:04;;;;;;;;;6.75;5.75;;;;;;;;5038090;28;45347;-82
2023/05/02 05:38:29;;;;;;;;;16.00;11.50;;;;;;;;5037817;28;45497;-81
2023/05/02 05:40:54;;;;;;;;;11.67;8.00;;;;;;;;5037962;28;45368;-82
2023/05/02 05:43:19;;;;;;;;;12.67;8.33;;;;;;;;5038148;28;45398;-82
2023/05/02 05:45:44;;;;;;;;;12.33;8.00;;;;;;;;5038008;28;45321;-82
2023/05/02 05:48:10;;;;;;;;;14.67;9.67;;;;;;;;5020210;28;45348;-83
2023/05/02 05:50:35;;;;;;;;;12.67;9.33;;;;;;;;5037743;28;47919;-82
2023/05/02 05:53:00;;;;;;;;;9.00;8.33;;;;;;;;5037491;28;45370;-81
2023/05/02 05:55:26;;;;;;;;;11.67;8.00;;;;;;;;5037639;28;45386;-81
2023/05/02 05:57:51;;;;;;;;;8.50;8.00;;;;;;;;5036675;28;45594;-82
2023/05/02 06:00:16;;;;;;;;;11.00;5.00;;;;;;;;5037505;28;46954;-82
2023/05/02 06:02:41;;;;;;;;;7.00;7.00;;;;;;;;5020611;28;45421;-82
2023/05/02 06:05:07;;;;;;;;;15.67;8.33;;;;;;;;5037547;28;45311;-82
2023/05/02 06:07:32;;;;;;;;;11.00;7.00;;;;;;;;5036967;28;45372;-82
2023/05/02 06:09:57;;;;;;;;;8.67;7.00;;;;;;;;5037707;28;47177;-82
2023/05/02 06:12:22;;;;;;;;;7.33;5.67;;;;;;;;5019430;28;45396;-82
2023/05/02 06:14:48;;;;;;;;;8.67;6.67;;;;;;;;5019626;28;45578;-82
2023/05/02 06:17:13;;;;;;;;;8.00;5.33;;;;;;;;5019661;28;45352;-82
2023/05/02 06:19:38;;;;;;;;;8.00;3.00;;;;;;;;5037377;28;46371;-82
2023/05/02 06:22:03;;;;;;;;;8.67;5.67;;;;;;;;5037215;28;45429;-82
2023/05/02 06:24:28;;;;;;;;;10.00;6.00;;;;;;;;5037500;28;45510;-82
2023/05/02 06:26:54;;;;;;;;;11.33;6.67;;;;;;;;5037470;28;45313;-82
2023/05/02 06:29:19;;;;;;;;;11.00;6.00;;;;;;;;5037308;28;45402;-82
2023/05/02 06:31:44;;;;;;;;;10.67;6.67;;;;;;;;5019218;28;45348;-82
2023/05/02 06:34:10;;;;;;;;;8.00;7.00;;;;;;;;5037199;28;45394;-82
2023/05/02 06:36:35;;;;;;;;;11.33;6.33;;;;;;;;5037096;28;45285;-82
2023/05/02 06:39:00;;;;;;;;;8.00;6.00;;;;;;;;5036712;28;45436;-82
2023/05/02 06:41:25;;;;;;;;;13.67;6.00;;;;;;;;5037330;28;45493;-83
2023/05/02 06:43:50;;;;;;;;;9.00;8.00;;;;;;;;5037166;28;45474;-82
2023/05/02 06:46:16;;;;;;;;;9.00;5.67;;;;;;;;5037073;28;45427;-82
2023/05/02 06:48:41;;;;;;;;;8.25;7.00;;;;;;;;5019026;28;48114;-82
2023/05/02 06:51:06;;;;;;;;;7.67;7.00;;;;;;;;5036524;28;45420;-82
2023/05/02 06:53:32;;;;;;;;;11.67;6.00;;;;;;;;5019236;28;45343;-83
2023/05/02 06:55:57;;;;;;;;;10.50;9.25;;;;;;;;5036928;28;45509;-82
2023/05/02 06:58:22;;;;;;;;;7.00;7.00;;;;;;;;5018838;28;48409;-82
2023/05/02 07:00:49;;;;;;;;;4.25;2.50;;;;;;;;5036816;28;45365;-83
2023/05/02 07:03:14;;;;;;;;;12.00;7.00;;;;;;;;5036721;28;45374;-82
2023/05/02 07:05:40;;;;;;;;;8.33;7.33;;;;;;;;5036376;28;45439;-83
2023/05/02 07:08:05;;;;;;;;;12.50;7.75;;;;;;;;5036170;28;46471;-83
2023/05/02 07:10:30;;;;;;;;;8.00;6.25;;;;;;;;5036688;28;45392;-82
2023/05/02 07:12:56;;;;;;;;;13.00;9.75;;;;;;;;5036556;28;45308;-82
2023/05/02 07:15:21;;;;;;;;;13.67;7.67;;;;;;;;5036499;28;45456;-83
2023/05/02 07:17:46;;;;;;;;;11.67;6.33;;;;;;;;5036571;28;46649;-82
2023/05/02 07:20:12;;;;;;;;;15.00;7.25;;;;;;;;5036181;28;45385;-83
2023/05/02 07:22:37;;;;;;;;;8.50;7.00;;;;;;;;5036690;28;45760;-82
2023/05/02 07:25:02;;;;;;;;;12.33;7.67;;;;;;;;5036561;28;45422;-82
2023/05/02 07:27:28;;;;;;;;;17.50;8.75;;;;;;;;5036332;28;46854;-83
2023/05/02 07:29:53;;;;;;;;;13.33;9.00;;;;;;;;5036356;28;45565;-82
2023/05/02 07:32:18;;;;;;;;;11.33;8.33;;;;;;;;5036269;28;45337;-82
2023/05/02 07:34:44;;;;;;;;;9.25;7.00;;;;;;;;5036067;28;45337;-82
2023/05/02 07:37:10;;;;;;;;;11.33;7.67;;;;;;;;5036007;28;46632;-82
2023/05/02 07:39:35;;;;;;;;;12.25;7.75;;;;;;;;5036206;28;45419;-83
2023/05/02 07:42:02;;;;;;;;;15.33;8.00;;;;;;;;5036418;28;45264;-82
2023/05/02 07:44:27;;;;;;;;;9.75;9.50;;;;;;;;5036232;28;45238;-82
2023/05/02 07:46:53;;;;;;;;;14.33;9.67;;;;;;;;5035934;28;47302;-83
2023/05/02 07:49:18;;;;;;;;;9.33;8.33;;;;;;;;5035705;28;45339;-83
2023/05/02 07:51:44;;;;;;;;;9.75;3.50;;;;;;;;5036089;28;45285;-82
2023/05/02 07:54:19;;;;;;;;;13.00;8.25;;;;;;;;5036113;28;45318;-83
2023/05/02 07:56:46;;;;;;;;;8.50;7.00;;;;;;;;5035945;28;46663;-82
2023/05/02 07:59:11;;;;;;;;;12.75;8.00;;;;;;;;5035924;28;45688;-82
2023/05/02 08:01:37;;;;;;;;;8.75;8.00;;;;;;;;5036065;28;45299;-82
2023/05/02 08:04:03;;;;;;;;;15.75;7.25;;;;;;;;5035644;28;45609;-82
2023/05/02 08:06:28;;;;;;;;;15.00;7.75;;;;;;;;5035812;28;47073;-83
2023/05/02 08:08:53;;;;;;;;;12.67;7.67;;;;;;;;5035666;28;45250;-82
2023/05/02 08:11:20;;;;;;;;;14.33;10.33;;;;;;;;5035729;28;45328;-82
2023/05/02 08:13:46;;;;;;;;;12.75;8.75;;;;;;;;5035462;28;45626;-82
2023/05/02 08:16:11;;;;;;;;;13.50;8.00;;;;;;;;5035528;28;46781;-82
2023/05/02 08:18:36;;;;;;;;;18.25;10.75;;;;;;;;5035028;28;45396;-83
2023/05/02 08:21:01;;;;;;;;;14.33;11.33;;;;;;;;5035240;28;45277;-82
2023/05/02 08:23:27;;;;;;;;;14.00;11.00;;;;;;;;5035860;28;45374;-83
2023/05/02 08:25:52;;;;;;;;;12.33;8.33;;;;;;;;5035419;28;45442;-83
2023/05/02 08:28:18;;;;;;;;;13.25;9.25;;;;;;;;5035623;28;45309;-83
2023/05/02 08:30:44;;;;;;;;;13.25;6.50;;;;;;;;5035615;28;45459;-83
2023/05/02 08:33:09;;;;;;;;;9.75;9.00;;;;;;;;5017349;28;45669;-83
2023/05/02 08:35:35;;;;;;;;;14.67;8.00;;;;;;;;5017420;28;47323;-83
2023/05/02 08:38:00;;;;;;;;;17.50;11.75;;;;;;;;5017257;28;45440;-82
2023/05/02 08:40:26;;;;;;;;;14.00;14.00;;;;;;;;5035491;28;45519;-83
2023/05/02 08:42:51;;;;;;;;;18.00;9.00;;;;;;;;5035475;28;45292;-82
2023/05/02 08:45:17;;;;;;;;;14.00;10.25;;;;;;;;5035292;28;45353;-82
2023/05/02 08:47:43;;;;;;;;;15.00;9.25;;;;;;;;5034975;28;45380;-83
2023/05/02 08:50:09;;;;;;;;;12.00;9.25;;;;;;;;5035351;28;45456;-83
2023/05/02 08:52:35;;;;;;;;;9.00;5.50;;;;;;;;5035266;28;45519;-82
2023/05/02 08:55:00;;;;;;;;;8.75;6.50;;;;;;;;5035150;28;45719;-83
2023/05/02 08:57:28;;;;;;;;;8.75;5.25;;;;;;;;5035281;28;45374;-83
2023/05/02 08:59:53;;;;;;;;;7.75;6.50;;;;;;;;5034886;28;45446;-81
2023/05/02 09:02:37;;;;;;;;;10.33;7.33;;;;;;;;5035371;28;45560;-83
2023/05/02 09:05:05;;;;;;;;;14.00;6.50;;;;;;;;5034918;28;46315;-83
2023/05/02 09:07:41;;;;;;;;;8.25;6.75;;;;;;;;5017184;28;45397;-83
2023/05/02 09:10:07;;;;;;;;;9.00;4.00;;;;;;;;5035269;28;45456;-82
2023/05/02 09:12:32;;;;;;;;;7.75;3.50;;;;;;;;5034803;28;45497;-83
2023/05/02 09:15:10;;;;;;;;;7.33;6.67;;;;;;;;5034461;28;45513;-82
2023/05/02 09:17:39;;;;;;;;;12.75;7.75;;;;;;;;5035124;28;45353;-82
2023/05/02 09:20:05;;;;;;;;;7.00;6.50;;;;;;;;5017157;28;45352;-82
2023/05/02 09:22:30;;;;;;;;;6.25;5.00;;;;;;;;5034942;28;45608;-83
2023/05/02 09:24:56;;;;;;;;;9.33;6.33;;;;;;;;5034760;28;46426;-83
2023/05/02 09:27:21;;;;;;;;;4.50;3.00;;;;;;;;5034582;28;45372;-83
2023/05/02 09:29:46;;;;;;;;;8.33;4.33;;;;;;;;5034636;28;45320;-83
2023/05/02 09:32:11;;;;;;;;;9.33;6.33;;;;;;;;5037856;28;45293;-83
2023/05/02 09:34:38;;;;;;;;;9.67;5.00;;;;;;;;5037836;28;46568;-83
2023/05/02 09:37:04;;;;;;;;;9.75;8.00;;;;;;;;5037916;28;45481;-82
2023/05/02 09:39:30;;;;;;;;;7.00;4.75;;;;;;;;5038229;28;45347;-84
2023/05/02 09:41:55;;;;;;;;;10.75;6.25;;;;;;;;5038067;28;45288;-82
2023/05/02 09:44:22;;;;;;;;;11.75;7.00;;;;;;;;5019645;28;46371;-83
2023/05/02 09:46:48;;;;;;;;;9.50;6.00;;;;;;;;5038010;28;45468;-83
2023/05/02 09:49:13;;;;;;;;;6.50;6.50;;;;;;;;5038217;28;45433;-83
2023/05/02 09:51:39;;;;;;;;;12.25;7.25;;;;;;;;5037880;28;45356;-83
2023/05/02 09:54:04;;;;;;;;;9.50;8.25;;;;;;;;5019843;28;47198;-83
2023/05/02 09:56:29;;;;;;;;;13.33;7.33;;;;;;;;5037930;28;45355;-83
2023/05/02 09:59:14;;;;;;;;;10.00;8.00;;;;;;;;5037572;28;45523;-84
2023/05/02 10:01:41;;;;;;;;;9.50;8.00;;;;;;;;5037784;28;45567;-83
2023/05/02 10:04:08;;;;;;;;;11.75;8.00;;;;;;;;5037458;28;46426;-83
2023/05/02 10:06:33;;;;;;;;;5.00;5.00;;;;;;;;5037777;28;45688;-83
2023/05/02 10:08:59;;;;;;;;;12.33;6.00;;;;;;;;5037909;28;45301;-83
2023/05/02 10:11:24;;;;;;;;;6.50;5.00;;;;;;;;5037391;28;45498;-83
2023/05/02 10:13:51;;;;;;;;;8.00;5.00;;;;;;;;5036986;28;46512;-83
2023/05/02 10:16:21;;;;;;;;;9.00;6.00;;;;;;;;5037425;28;45237;-84
2023/05/02 10:18:51;;;;;;;;;4.25;4.25;;;;;;;;5019756;28;45392;-83
2023/05/02 10:21:19;;;;;;;;;7.25;6.00;;;;;;;;5037546;28;45546;-82
2023/05/02 10:23:44;;;;;;;;;11.00;6.00;;;;;;;;5036986;28;46410;-83
2023/05/02 10:26:11;;;;;;;;;6.00;5.00;;;;;;;;5037493;28;45553;-83
2023/05/02 10:28:37;;;;;;;;;7.50;7.25;;;;;;;;5037320;28;45762;-83
2023/05/02 10:31:03;;;;;;;;;7.25;5.00;;;;;;;;5037419;28;45305;-84
2023/05/02 10:33:30;;;;;;;;;10.00;6.00;;;;;;;;5037351;28;45581;-84
2023/05/02 10:35:56;;;;;;;;;6.00;5.00;;;;;;;;5037363;28;45195;-83
2023/05/02 10:38:22;;;;;;;;;10.25;5.50;;;;;;;;5037216;28;45494;-83
2023/05/02 10:41:14;;;;;;;;;10.75;8.75;;;;;;;;5037455;28;45340;-83
2023/05/02 10:43:40;;;;;;;;;7.50;6.00;;;;;;;;5031211;28;46318;-83
2023/05/02 10:46:26;;;;;;;;;7.75;6.00;;;;;;;;5037131;28;45426;-84
2023/05/02 10:49:17;;;;;;;;;11.25;6.50;;;;;;;;5019631;28;45308;-83
2023/05/02 10:51:43;;;;;;;;;11.00;9.00;;;;;;;;5031753;28;45344;-84
2023/05/02 10:54:23;;;;;;;;;15.50;10.00;;;;;;;;5036882;28;45461;-83
2023/05/02 10:57:04;;;;;;;;;10.75;9.25;;;;;;;;5036615;28;45437;-84
2023/05/02 10:59:36;;;;;;;;;8.00;6.50;;;;;;;;5037100;28;45384;-83
2023/05/02 11:02:01;;;;;;;;;14.25;8.75;;;;;;;;5018464;28;45677;-83
2023/05/02 11:04:45;;;;;;;;;11.25;9.25;;;;;;;;5036352;28;46479;-83
2023/05/02 11:07:13;;;;;;;;;12.00;10.00;;;;;;;;5036653;28;45361;-83
2023/05/02 11:09:38;;;;;;;;;13.25;11.75;;;;;;;;5036843;28;45342;-84
2023/05/02 11:12:03;;;;;;;;;8.00;7.00;;;;;;;;5036128;28;45406;-83
2023/05/02 11:14:38;;;;;;;;;7.00;6.25;;;;;;;;5036515;28;47073;-84
2023/05/02 11:17:03;;;;;;;;;8.25;5.75;;;;;;;;5036496;28;45903;-83
2023/05/02 11:19:30;;;;;;;;;9.00;6.00;;;;;;;;5036747;28;45494;-83
2023/05/02 11:22:14;;;;;;;;;11.00;5.75;;;;;;;;5036382;28;45479;-84
2023/05/02 11:24:40;;;;;;;;;10.50;8.00;;;;;;;;5036289;28;46446;-84
2023/05/02 11:27:24;;;;;;;;;6.50;6.00;;;;;;;;5036038;28;45875;-83
2023/05/02 11:29:56;;;;;;;;;10.25;6.75;;;;;;;;5036282;28;45407;-84
2023/05/02 11:32:21;;;;;;;;;8.00;8.00;;;;;;;;5018398;28;45364;-84
2023/05/02 11:34:49;;;;;;;;;7.75;6.25;;;;;;;;5036052;28;46324;-83
2023/05/02 11:37:14;;;;;;;;;7.50;5.25;;;;;;;;5035969;28;45675;-83
2023/05/02 11:39:40;;;;;;;;;6.67;6.00;;;;;;;;5036049;28;45323;-84
2023/05/02 11:42:05;;;;;;;;;7.00;6.00;;;;;;;;5036180;28;45297;-83
2023/05/02 11:44:30;;;;;;;;;8.00;5.00;;;;;;;;5036005;28;46467;-84
2023/05/02 11:46:56;;;;;;;;;11.00;5.00;;;;;;;;5036073;28;45408;-83
2023/05/02 11:49:21;;;;;;;;;7.00;6.00;;;;;;;;5036087;28;45371;-84
2023/05/02 11:51:46;;;;;;;;;7.33;5.33;;;;;;;;5036003;28;45306;-84
2023/05/02 11:54:19;;;;;;;;;11.00;6.00;;;;;;;;5034253;28;47291;-84
2023/05/02 11:56:44;;;;;;;;;9.00;6.00;;;;;;;;5035904;28;45692;-83
2023/05/02 11:59:10;;;;;;;;;5.00;4.00;;;;;;;;5036063;28;45463;-84
2023/05/02 12:01:35;;;;;;;;;6.25;5.75;;;;;;;;5018030;28;45456;-84
2023/05/02 12:04:01;;;;;;;;;9.25;6.00;;;;;;;;5035753;28;45444;-84
2023/05/02 12:06:27;;;;;;;;;7.50;4.75;;;;;;;;5035851;28;45759;-85
2023/05/02 12:09:04;;;;;;;;;7.00;4.00;;;;;;;;5035690;28;45466;-84
2023/05/02 12:11:30;;;;;;;;;5.75;4.75;;;;;;;;5035759;28;45500;-84
2023/05/02 12:13:55;;;;;;;;;8.50;6.25;;;;;;;;5017565;28;46488;-84
2023/05/02 12:16:20;;;;;;;;;6.00;4.75;;;;;;;;5035558;28;45464;-84
2023/05/02 12:18:46;;;;;;;;;5.00;5.00;;;;;;;;5018032;28;45347;-85
2023/05/02 12:21:11;;;;;;;;;5.00;2.75;;;;;;;;5035587;28;45346;-85
2023/05/02 12:23:38;;;;;;;;;5.00;4.00;;;;;;;;5035207;28;46343;-85
2023/05/02 12:26:16;;;;;;;;;7.50;4.50;;;;;;;;5035627;28;45759;-84
2023/05/02 12:28:51;;;;;;;;;5.50;4.00;;;;;;;;5035768;28;45242;-84
2023/05/02 12:31:16;;;;;;;;;3.50;3.25;;;;;;;;5035780;28;45476;-84
2023/05/02 12:33:42;;;;;;;;;3.67;3.67;;;;;;;;5035340;28;46572;-84
2023/05/02 12:36:08;;;;;;;;;4.00;4.00;;;;;;;;5035512;28;45433;-85
2023/05/02 12:38:33;;;;;;;;;4.00;3.75;;;;;;;;5035099;28;45488;-84
2023/05/02 12:40:58;;;;;;;;;3.67;2.67;;;;;;;;5035510;28;45537;-84
2023/05/02 12:43:24;;;;;;;;;7.67;3.00;;;;;;;;5035247;28;45452;-84
2023/05/02 12:45:50;;;;;;;;;3.00;2.75;;;;;;;;5035186;28;45376;-83
2023/05/02 12:48:19;;;;;;;;;3.50;2.25;;;;;;;;5035466;28;45297;-84
2023/05/02 12:50:44;;;;;;;;;2.75;2.00;;;;;;;;5035377;28;45401;-84
2023/05/02 12:53:10;;;;;;;;;2.67;2.33;;;;;;;;5034717;28;47223;-85
2023/05/02 12:55:35;;;;;;;;;4.67;3.00;;;;;;;;5035012;28;45302;-84
2023/05/02 12:58:13;;;;;;;;;4.00;2.25;;;;;;;;5035221;28;45262;-84
2023/05/02 13:00:40;;;;;;;;;3.50;2.00;;;;;;;;5035311;28;45397;-84
2023/05/02 13:03:06;;;;;;;;;4.25;1.00;;;;;;;;5034903;28;45366;-84
2023/05/02 13:05:31;;;;;;;;;3.25;2.50;;;;;;;;5035678;28;45380;-84
2023/05/02 13:07:57;;;;;;;;;2.33;0.67;;;;;;;;5038380;28;45628;-84
2023/05/02 13:10:23;;;;;;;;;1.00;1.00;;;;;;;;5038663;28;45430;-84
2023/05/02 13:12:49;;;;;;;;;2.75;0.75;;;;;;;;5038211;28;46211;-84
2023/05/02 13:15:14;;;;;;;;;2.50;1.75;;;;;;;;5038402;28;45424;-84
2023/05/02 13:17:39;;;;;;;;;4.00;2.00;;;;;;;;5038606;28;45418;-84
2023/05/02 13:20:05;;;;;;;;;3.00;1.00;;;;;;;;5038539;28;45268;-84
2023/05/02 13:22:31;;;;;;;;;3.50;2.50;;;;;;;;5037899;28;46161;-84
2023/05/02 13:24:56;;;;;;;;;3.00;3.00;;;;;;;;5038529;28;45258;-84
2023/05/02 13:27:21;;;;;;;;;3.00;1.00;;;;;;;;5038509;28;45476;-84
2023/05/02 13:29:50;;;;;;;;;3.00;2.00;;;;;;;;5038310;28;45385;-84
2023/05/02 13:32:15;;;;;;;;;4.00;2.75;;;;;;;;5038135;28;45520;-84
2023/05/02 13:34:41;;;;;;;;;3.25;1.00;;;;;;;;5038208;28;45400;-83
2023/05/02 13:37:06;;;;;;;;;3.00;1.00;;;;;;;;5037899;28;45311;-83
2023/05/02 13:39:31;;;;;;;;;2.00;1.00;;;;;;;;5038195;28;45316;-84
2023/05/02 13:41:56;;;;;;;;;1.00;1.00;;;;;;;;5037909;28;46366;-84
2023/05/02 13:44:21;;;;;;;;;1.00;1.00;;;;;;;;5037853;28;45384;-84
2023/05/02 13:46:47;;;;;;;;;1.67;0.67;;;;;;;;5038373;28;45406;-85
2023/05/02 13:49:12;;;;;;;;;1.00;1.00;;;;;;;;5038140;28;45450;-84
2023/05/02 13:51:37;;;;;;;;;5.00;2.25;;;;;;;;5037549;28;45598;-84
2023/05/02 13:54:02;;;;;;;;;4.00;3.00;;;;;;;;5037898;28;45388;-84
2023/05/02 13:56:28;;;;;;;;;6.67;2.00;;;;;;;;5038056;28;45630;-84
2023/05/02 13:58:53;;;;;;;;;1.33;1.00;;;;;;;;5037985;28;45459;-84
2023/05/02 14:01:18;;;;;;;;;5.00;1.00;;;;;;;;5037893;28;45391;-84
2023/05/02 14:03:43;;;;;;;;;3.00;1.00;;;;;;;;5037598;28;45400;-84
2023/05/02 14:06:08;;;;;;;;;1.00;1.00;;;;;;;;5037494;28;45420;-84
2023/05/02 14:08:34;;;;;;;;;3.33;2.00;;;;;;;;5037824;28;45409;-84
2023/05/02 14:10:59;;;;;;;;;3.67;1.67;;;;;;;;5037447;28;45986;-83
2023/05/02 14:13:25;;;;;;;;;4.00;2.75;;;;;;;;5037302;28;45388;-84
2023/05/02 14:15:50;;;;;;;;;2.25;2.00;;;;;;;;5037650;28;45392;-83
2023/05/02 14:18:15;;;;;;;;;3.50;1.00;;;;;;;;5036440;28;45451;-84
2023/05/02 14:20:41;;;;;;;;;3.25;1.00;;;;;;;;5037141;28;47247;-83
2023/05/02 14:23:06;;;;;;;;;0.25;0.00;;;;;;;;5037471;28;45268;-83
2023/05/02 14:25:31;;;;;;;;;1.00;1.00;;;;;;;;5037565;28;45270;-83
2023/05/02 14:27:57;;;;;;;;;3.33;2.00;;;;;;;;5037427;28;45417;-83
2023/05/02 14:30:22;;;;;;;;;2.33;2.00;;;;;;;;5037255;28;46084;-84
2023/05/02 14:32:47;;;;;;;;;2.67;1.67;;;;;;;;5019335;28;45388;-84
2023/05/02 14:35:12;;;;;;;;;3.33;2.00;;;;;;;;5037072;28;45392;-83
2023/05/02 14:37:38;;;;;;;;;2.00;1.00;;;;;;;;5037255;28;45387;-84